Time;durP1;ratioP1;P1;durP2;ratioP2;P2;SDS_P1;SDS_P2;PMS_P1;PMS_P2;Temp;Humidity;BMP_temperature;BMP_pressure;BME280_temperature;BME280_humidity;BME280_pressure;Samples;Min_cycle;Max_cycle;Signal;HPM_P1;HPM_P2
2022/10/31 00:02:04;;;;;;;11.77;5.57;;;;;;;16.10;62.41;99221.00;6893618;28;20283;-77
2022/10/31 00:05:25;;;;;;;12.90;5.13;;;;;;;16.08;62.21;99223.97;6893904;28;20351;-77
2022/10/31 00:08:47;;;;;;;7.97;4.93;;;;;;;16.15;62.11;99219.25;6893310;28;20271;-77
2022/10/31 00:12:10;;;;;;;11.97;5.40;;;;;;;15.89;62.28;99205.16;6893634;28;20225;-77
2022/10/31 00:15:33;;;;;;;11.50;5.10;;;;;;;16.12;62.01;99225.16;6893612;28;20710;-77
2022/10/31 00:18:56;;;;;;;11.73;5.30;;;;;;;16.04;62.08;99222.75;6892928;28;20272;-77
2022/10/31 00:22:18;;;;;;;12.37;5.37;;;;;;;15.69;63.96;99223.63;6893060;28;20232;-77
2022/10/31 00:25:40;;;;;;;8.50;5.07;;;;;;;16.02;62.49;99221.31;6893147;28;20627;-77
2022/10/31 00:29:04;;;;;;;8.07;5.27;;;;;;;16.21;62.24;99220.22;6892569;28;20239;-77
2022/10/31 00:32:25;;;;;;;9.53;5.60;;;;;;;16.13;62.05;99215.09;6893077;28;20222;-77
2022/10/31 00:35:50;;;;;;;8.23;5.47;;;;;;;15.88;62.11;99219.84;6893184;28;20216;-77
2022/10/31 00:39:11;;;;;;;9.13;5.67;;;;;;;16.01;62.05;99212.34;6892508;28;20308;-77
2022/10/31 00:42:33;;;;;;;13.37;4.93;;;;;;;15.92;62.37;99224.56;6892489;28;20368;-77
2022/10/31 00:45:57;;;;;;;7.37;5.27;;;;;;;15.79;62.46;99226.63;6891586;28;20290;-78
2022/10/31 00:49:18;;;;;;;8.90;4.73;;;;;;;15.84;61.94;99205.88;6892423;28;20193;-77
2022/10/31 00:52:40;;;;;;;7.33;4.97;;;;;;;15.79;61.85;99200.28;6892729;28;20253;-77
2022/10/31 00:56:01;;;;;;;8.37;4.67;;;;;;;15.73;61.99;99222.09;6892998;28;20728;-77
2022/10/31 00:59:23;;;;;;;13.27;4.87;;;;;;;15.80;61.56;99239.19;6892049;28;20350;-77
2022/10/31 01:02:46;;;;;;;9.97;5.43;;;;;;;15.18;62.30;99175.06;6892155;28;20371;-79
2022/10/31 01:06:09;;;;;;;11.03;5.17;;;;;;;15.90;61.44;99225.88;6892604;28;20351;-78
2022/10/31 01:09:31;;;;;;;8.17;4.90;;;;;;;15.87;61.41;99224.44;6891737;28;20299;-78
2022/10/31 01:12:52;;;;;;;6.53;5.00;;;;;;;15.81;60.93;99183.75;6892121;28;20311;-78
2022/10/31 01:16:16;;;;;;;11.80;4.80;;;;;;;16.06;61.10;99219.81;6892132;28;20227;-77
2022/10/31 01:19:39;;;;;;;8.00;5.20;;;;;;;15.87;61.23;99216.28;6891526;28;20296;-78
2022/10/31 01:23:00;;;;;;;11.53;5.30;;;;;;;15.53;61.56;99178.88;6892133;28;20235;-78
2022/10/31 01:26:23;;;;;;;10.70;4.67;;;;;;;15.32;63.09;99211.03;6892301;28;20212;-78
2022/10/31 01:29:45;;;;;;;12.70;5.63;;;;;;;15.43;62.66;99215.78;6891735;28;20641;-78
2022/10/31 01:33:06;;;;;;;9.57;5.80;;;;;;;15.54;62.55;99201.44;6892064;28;20318;-79
2022/10/31 01:36:31;;;;;;;8.77;5.47;;;;;;;15.80;62.16;99198.41;6897232;28;20569;-78
2022/10/31 01:39:52;;;;;;;12.40;5.60;;;;;;;15.69;62.23;99199.16;6897207;28;20212;-78
2022/10/31 01:43:14;;;;;;;13.83;5.13;;;;;;;15.74;61.78;99213.72;6897549;28;20305;-78
2022/10/31 01:46:38;;;;;;;6.57;4.50;;;;;;;15.52;61.15;99196.22;6896647;28;20212;-78
2022/10/31 01:50:02;;;;;;;9.30;5.10;;;;;;;15.62;61.35;99199.25;6897848;28;20288;-78
2022/10/31 01:53:25;;;;;;;9.47;5.30;;;;;;;15.26;61.57;99203.81;6897443;28;20374;-79
2022/10/31 01:56:50;;;;;;;8.20;5.10;;;;;;;15.33;62.19;99207.34;6900464;28;20217;-79
2022/10/31 02:00:13;;;;;;;7.50;4.90;;;;;;;15.55;61.30;99201.22;6923849;28;20304;-78
2022/10/31 02:03:35;;;;;;;10.03;5.83;;;;;;;15.21;61.68;99199.06;6924211;28;20228;-78
2022/10/31 02:06:59;;;;;;;10.20;5.70;;;;;;;15.39;61.46;99179.25;6923912;28;20298;-78
2022/10/31 02:10:23;;;;;;;8.27;5.27;;;;;;;15.17;61.42;99181.53;6913238;28;20348;-78
2022/10/31 02:13:45;;;;;;;11.63;5.63;;;;;;;15.34;61.54;99198.13;6896640;28;20217;-78
2022/10/31 02:17:06;;;;;;;6.83;4.90;;;;;;;15.32;61.53;99211.91;6895181;28;20852;-78
2022/10/31 02:20:32;;;;;;;14.90;5.77;;;;;;;15.27;61.07;99202.78;6894492;28;20287;-78
2022/10/31 02:24:26;;;;;;;9.37;5.20;;;;;;;15.14;61.75;99198.28;6895873;28;20690;-78
2022/10/31 02:28:26;;;;;;;11.70;5.80;;;;;;;15.09;62.01;99211.72;6894982;28;20211;-78
2022/10/31 02:31:56;;;;;;;31.20;19.47;;;;;;;15.09;62.26;99195.41;6896076;28;20263;-78
2022/10/31 02:35:27;;;;;;;12.47;6.73;;;;;;;15.30;61.63;99210.44;6899838;28;20212;-78
2022/10/31 02:38:53;;;;;;;11.77;5.73;;;;;;;14.73;61.82;99148.34;6904645;28;20212;-77
2022/10/31 02:42:18;;;;;;;7.63;4.87;;;;;;;14.81;62.23;99169.81;6899864;28;20303;-77
2022/10/31 02:45:45;;;;;;;7.27;5.47;;;;;;;15.33;61.28;99201.91;6899255;28;20272;-77
2022/10/31 02:49:12;;;;;;;8.03;5.23;;;;;;;15.20;61.53;99197.41;6896152;28;20213;-77
2022/10/31 02:52:35;;;;;;;10.10;5.43;;;;;;;15.08;61.62;99193.75;6895349;28;20643;-77
2022/10/31 02:55:59;;;;;;;8.57;5.43;;;;;;;14.87;61.70;99186.00;6895406;28;20220;-77
2022/10/31 02:59:21;;;;;;;13.27;7.90;;;;;;;14.88;61.67;99195.00;6894692;28;20212;-77
2022/10/31 03:02:57;;;;;;;10.70;5.63;;;;;;;15.03;61.55;99211.75;6894722;28;20732;-77
2022/10/31 03:06:24;;;;;;;9.93;5.47;;;;;;;14.81;61.63;99183.38;6895626;28;20200;-78
2022/10/31 03:09:52;;;;;;;7.03;5.27;;;;;;;15.08;61.32;99211.94;6895032;28;20283;-78
2022/10/31 03:13:21;;;;;;;10.83;5.37;;;;;;;14.91;61.54;99203.53;6894976;28;20313;-77
2022/10/31 03:16:47;;;;;;;9.53;5.40;;;;;;;14.82;61.38;99193.19;6895305;28;20562;-78
2022/10/31 03:20:11;;;;;;;9.60;5.47;;;;;;;15.13;61.02;99196.63;6894693;28;20194;-77
2022/10/31 03:23:36;;;;;;;5.77;5.00;;;;;;;15.17;61.00;99203.25;6894895;28;20298;-78
2022/10/31 03:27:00;;;;;;;8.87;5.63;;;;;;;14.92;61.42;99197.03;6895073;28;20219;-80
2022/10/31 03:30:22;;;;;;;11.13;5.20;;;;;;;14.74;61.23;99185.31;6894045;28;20355;-80
2022/10/31 03:33:44;;;;;;;8.40;5.23;;;;;;;14.56;61.84;99202.38;6894416;28;20298;-80
2022/10/31 03:37:07;;;;;;;9.53;6.00;;;;;;;14.79;61.47;99208.03;6894651;28;20731;-80
2022/10/31 03:40:31;;;;;;;7.93;5.47;;;;;;;14.85;62.09;99212.56;6894497;28;20294;-80
2022/10/31 03:43:56;;;;;;;15.30;5.40;;;;;;;14.85;62.00;99196.28;6893425;28;20774;-80
2022/10/31 03:47:18;;;;;;;9.93;6.23;;;;;;;14.82;61.80;99206.75;6893997;28;20247;-80
2022/10/31 03:50:44;;;;;;;8.73;5.73;;;;;;;14.87;61.34;99199.59;6893960;28;20315;-80
2022/10/31 03:54:10;;;;;;;8.77;5.17;;;;;;;14.63;61.47;99205.84;6894513;28;20213;-81
2022/10/31 03:57:36;;;;;;;6.60;4.80;;;;;;;14.69;61.21;99187.88;6892933;28;20223;-80
2022/10/31 04:00:58;;;;;;;8.37;4.97;;;;;;;14.58;61.74;99196.72;6893054;28;20323;-80
2022/10/31 04:04:20;;;;;;;10.00;5.27;;;;;;;14.38;61.54;99163.47;6893620;28;20327;-80
2022/10/31 04:07:44;;;;;;;9.37;5.30;;;;;;;14.58;61.80;99207.59;6892963;28;20216;-80
2022/10/31 04:11:07;;;;;;;8.20;5.17;;;;;;;14.44;61.64;99201.41;6892633;28;20228;-80
2022/10/31 04:14:32;;;;;;;6.90;5.23;;;;;;;14.46;62.01;99198.50;6892853;28;20219;-81
2022/10/31 04:17:54;;;;;;;8.10;5.07;;;;;;;14.55;61.50;99192.56;6891925;28;20220;-80
2022/10/31 04:21:16;;;;;;;9.57;5.33;;;;;;;14.64;61.11;99198.56;6892223;28;20234;-80
2022/10/31 04:24:40;;;;;;;8.67;4.83;;;;;;;14.65;61.35;99198.34;6892874;28;20204;-80
2022/10/31 04:28:01;;;;;;;8.60;5.23;;;;;;;14.64;60.20;99176.84;6891850;28;20594;-80
2022/10/31 04:31:24;;;;;;;10.27;5.43;;;;;;;14.40;60.93;99174.97;6892611;28;20232;-80
2022/10/31 04:34:45;;;;;;;7.13;5.10;;;;;;;14.89;60.58;99192.06;6891829;28;20207;-80
2022/10/31 04:38:07;;;;;;;6.13;5.47;;;;;;;14.83;60.18;99189.41;6892835;28;20610;-79
2022/10/31 04:41:28;;;;;;;9.67;5.40;;;;;;;14.76;59.52;99199.50;6892854;28;20296;-80
2022/10/31 04:44:50;;;;;;;8.63;5.60;;;;;;;14.59;60.78;99196.53;6891883;28;20725;-80
2022/10/31 04:48:13;;;;;;;9.57;5.30;;;;;;;14.42;61.60;99180.97;6892924;28;20223;-80
2022/10/31 04:51:34;;;;;;;8.50;5.17;;;;;;;14.26;61.40;99184.22;6893381;28;20311;-80
2022/10/31 04:54:56;;;;;;;9.23;6.40;;;;;;;14.38;61.42;99177.03;6893749;28;20238;-81
2022/10/31 04:58:17;;;;;;;7.00;5.57;;;;;;;14.45;61.63;99175.13;6906793;28;20695;-80
2022/10/31 05:01:39;;;;;;;7.47;4.90;;;;;;;14.12;61.96;99175.34;6919870;28;20240;-80
2022/10/31 05:05:03;;;;;;;8.77;5.77;;;;;;;14.32;61.64;99165.19;6919777;28;20207;-81
2022/10/31 05:08:24;;;;;;;7.27;4.83;;;;;;;14.26;61.37;99152.53;6917903;28;20377;-80
2022/10/31 05:11:46;;;;;;;7.63;5.00;;;;;;;14.07;60.71;99158.88;6919553;28;20776;-80
2022/10/31 05:15:08;;;;;;;13.87;5.53;;;;;;;13.97;61.25;99128.72;6919620;28;20207;-80
2022/10/31 05:18:29;;;;;;;7.57;5.80;;;;;;;13.92;61.98;99152.13;6918731;28;20208;-80
2022/10/31 05:21:52;;;;;;;6.33;5.40;;;;;;;13.80;62.14;99161.97;6919449;28;20227;-81
2022/10/31 05:25:14;;;;;;;11.33;5.70;;;;;;;13.69;61.90;99122.81;6919399;28;20211;-80
2022/10/31 05:28:35;;;;;;;6.37;5.27;;;;;;;13.79;61.87;99158.44;6921221;28;20298;-82
2022/10/31 05:31:57;;;;;;;6.67;5.33;;;;;;;13.81;62.25;99145.47;6919999;28;20324;-78
2022/10/31 05:35:21;;;;;;;7.93;5.07;;;;;;;13.93;61.65;99151.88;6903008;28;20301;-79
2022/10/31 05:38:43;;;;;;;6.20;5.40;;;;;;;13.89;61.85;99139.81;6901999;28;20243;-80
2022/10/31 05:42:05;;;;;;;6.30;5.27;;;;;;;13.82;61.82;99141.75;6914905;28;20281;-79
2022/10/31 05:45:29;;;;;;;7.90;5.53;;;;;;;13.74;62.27;99154.72;6915859;28;20207;-79
2022/10/31 05:48:50;;;;;;;8.80;5.63;;;;;;;13.69;62.17;99143.69;6916295;28;20219;-79
2022/10/31 05:52:12;;;;;;;7.17;5.10;;;;;;;13.94;61.92;99147.28;6922795;28;20687;-80
2022/10/31 05:55:34;;;;;;;6.90;5.90;;;;;;;13.80;62.24;99138.41;6923926;28;20291;-79
2022/10/31 05:58:56;;;;;;;8.83;5.73;;;;;;;13.99;61.45;99134.72;6922255;28;20293;-79
2022/10/31 06:02:18;;;;;;;6.63;5.20;;;;;;;13.96;61.34;99140.59;6920635;28;20273;-79
2022/10/31 06:05:39;;;;;;;8.47;5.20;;;;;;;13.97;61.22;99136.00;6922159;28;20231;-79
2022/10/31 06:09:01;;;;;;;8.73;5.13;;;;;;;13.78;61.32;99124.25;6925455;28;20268;-80
2022/10/31 06:12:23;;;;;;;9.73;5.33;;;;;;;13.60;61.07;99150.41;6913869;28;20291;-80
2022/10/31 06:15:45;;;;;;;7.37;5.40;;;;;;;13.34;62.47;99156.75;6891923;28;20296;-79
2022/10/31 06:19:06;;;;;;;7.10;5.17;;;;;;;13.99;61.66;99142.88;6890255;28;20211;-79
2022/10/31 06:22:28;;;;;;;8.30;6.17;;;;;;;13.95;61.43;99116.41;6895732;28;20240;-79
2022/10/31 06:25:50;;;;;;;14.23;8.43;;;;;;;14.27;60.62;99140.63;6895913;28;20205;-79
2022/10/31 06:29:13;;;;;;;11.07;6.57;;;;;;;13.87;61.19;99146.50;6895640;28;20299;-80
2022/10/31 06:32:34;;;;;;;9.77;6.27;;;;;;;13.96;62.21;99140.59;6895805;28;20633;-79
2022/10/31 06:35:56;;;;;;;10.77;6.20;;;;;;;14.20;62.03;99141.72;6896245;28;20352;-79
2022/10/31 06:39:17;;;;;;;7.83;5.60;;;;;;;14.24;61.89;99140.22;6894775;28;20299;-79
2022/10/31 06:42:39;;;;;;;9.00;5.67;;;;;;;14.40;62.16;99148.66;6896071;28;20316;-79
2022/10/31 06:46:04;;;;;;;7.20;5.00;;;;;;;14.43;63.92;99156.34;6894662;28;20347;-78
2022/10/31 06:49:25;;;;;;;7.20;5.10;;;;;;;14.93;62.06;99143.59;6895760;28;20303;-79
2022/10/31 06:52:51;;;;;;;9.30;6.13;;;;;;;14.61;61.21;99147.41;6904205;28;20247;-79
2022/10/31 06:56:12;;;;;;;10.00;6.33;;;;;;;14.56;61.40;99149.97;6923679;28;20215;-79
2022/10/31 06:59:34;;;;;;;9.10;6.17;;;;;;;14.49;61.38;99149.19;6922506;28;20338;-80
2022/10/31 07:02:58;;;;;;;12.63;5.83;;;;;;;14.21;63.14;99156.97;6922399;28;20370;-80
2022/10/31 07:06:19;;;;;;;8.40;5.80;;;;;;;14.16;64.42;99154.84;6922892;28;20294;-81
2022/10/31 07:09:41;;;;;;;10.10;5.57;;;;;;;14.22;64.69;99131.50;6922341;28;20286;-80
2022/10/31 07:13:04;;;;;;;8.10;5.80;;;;;;;14.46;64.61;99149.66;6923172;28;20229;-80
2022/10/31 07:16:26;;;;;;;10.97;5.67;;;;;;;14.63;64.23;99140.72;6922757;28;20287;-80
2022/10/31 07:19:49;;;;;;;12.00;5.40;;;;;;;15.00;64.32;99139.75;6922227;28;20245;-79
2022/10/31 07:23:11;;;;;;;8.63;5.87;;;;;;;15.42;63.40;99138.03;6922199;28;20238;-79
2022/10/31 07:26:32;;;;;;;9.63;5.53;;;;;;;15.90;62.22;99144.28;6921814;28;20209;-79
2022/10/31 07:29:54;;;;;;;13.20;6.23;;;;;;;15.75;62.27;99133.81;6921004;28;20290;-79
2022/10/31 07:33:15;;;;;;;8.90;5.20;;;;;;;16.52;60.92;99136.44;6920765;28;20307;-79
2022/10/31 07:36:38;;;;;;;7.43;5.10;;;;;;;16.83;59.61;99143.44;6921796;28;20292;-79
2022/10/31 07:40:00;;;;;;;8.20;5.53;;;;;;;16.97;59.40;99144.84;6921751;28;20258;-80
2022/10/31 07:43:22;;;;;;;8.43;5.20;;;;;;;17.25;58.65;99147.66;6922430;28;20380;-79
2022/10/31 07:46:45;;;;;;;9.40;5.20;;;;;;;17.19;58.36;99140.47;6920264;28;20236;-79
2022/10/31 07:50:07;;;;;;;9.73;4.90;;;;;;;17.35;57.76;99137.81;6921412;28;21058;-79
2022/10/31 07:53:30;;;;;;;6.87;5.03;;;;;;;17.40;58.07;99135.22;6921526;28;20271;-79
2022/10/31 07:56:51;;;;;;;13.80;6.03;;;;;;;17.35;57.79;99137.81;6917194;28;20268;-79
2022/10/31 08:00:13;;;;;;;10.73;6.33;;;;;;;16.91;58.78;99148.53;6922129;28;20205;-79
2022/10/31 08:03:35;;;;;;;11.03;6.73;;;;;;;16.97;58.96;99150.28;6922567;28;20234;-80
2022/10/31 08:06:56;;;;;;;9.67;6.37;;;;;;;17.19;58.56;99138.56;6921483;28;20201;-80
2022/10/31 08:10:19;;;;;;;9.37;5.47;;;;;;;17.60;57.74;99148.47;6920747;28;20258;-80
2022/10/31 08:13:42;;;;;;;9.27;5.27;;;;;;;17.60;57.54;99153.91;6924990;28;20253;-79
2022/10/31 08:17:04;;;;;;;14.30;6.60;;;;;;;17.57;56.98;99147.03;6924283;28;20297;-80
2022/10/31 08:20:25;;;;;;;15.30;7.13;;;;;;;17.65;56.76;99115.84;6920410;28;20211;-80
2022/10/31 08:23:47;;;;;;;19.13;6.87;;;;;;;18.30;55.39;99139.75;6921110;28;20271;-80
2022/10/31 08:27:09;;;;;;;11.70;5.90;;;;;;;17.99;56.13;99145.69;6921769;28;20793;-79
2022/10/31 08:30:47;;;;;;;15.37;6.00;;;;;;;18.25;55.41;99117.81;6919003;28;20286;-79
2022/10/31 08:34:09;;;;;;;10.53;6.80;;;;;;;18.71;54.29;99141.28;6832601;28;20278;-79
2022/10/31 08:37:30;;;;;;;17.00;9.83;;;;;;;18.36;55.04;99141.53;6837010;29;20399;-79
2022/10/31 08:40:52;;;;;;;16.40;9.43;;;;;;;18.72;54.49;99138.31;6853484;28;20318;-79
2022/10/31 08:44:15;;;;;;;14.27;7.57;;;;;;;18.73;53.61;99133.66;6837347;28;20793;-79
2022/10/31 08:47:36;;;;;;;10.90;6.77;;;;;;;18.94;53.45;99141.94;6861132;28;20290;-80
2022/10/31 08:50:59;;;;;;;9.03;5.87;;;;;;;19.07;53.50;99135.28;6843028;28;20369;-79
2022/10/31 08:54:20;;;;;;;12.33;6.57;;;;;;;18.78;54.35;99122.81;6813091;29;20211;-79
2022/10/31 08:57:42;;;;;;;13.77;6.27;;;;;;;18.85;54.40;99131.66;6833554;29;20671;-80
2022/10/31 09:01:05;;;;;;;9.73;5.80;;;;;;;18.57;54.86;99123.56;6837122;28;20372;-79
2022/10/31 09:04:26;;;;;;;8.63;5.97;;;;;;;18.27;56.49;99109.38;6836835;29;20284;-80
2022/10/31 09:07:48;;;;;;;12.20;5.90;;;;;;;18.98;54.87;99109.47;6836986;29;20214;-79
2022/10/31 09:11:09;;;;;;;11.50;6.17;;;;;;;18.99;54.53;99097.44;6887596;28;20370;-80
2022/10/31 09:14:31;;;;;;;8.70;5.80;;;;;;;19.18;54.55;99107.84;6920891;28;20257;-79
2022/10/31 09:17:54;;;;;;;12.20;5.93;;;;;;;19.57;53.72;99108.66;6921097;28;20218;-80
2022/10/31 09:21:15;;;;;;;15.27;6.03;;;;;;;19.36;53.67;99093.91;6921959;28;20740;-79
2022/10/31 09:24:37;;;;;;;10.07;5.87;;;;;;;19.68;53.55;99099.44;6925414;28;20290;-80
2022/10/31 09:28:00;;;;;;;8.03;5.87;;;;;;;19.66;54.31;99093.41;6930101;28;20212;-80
2022/10/31 09:31:22;;;;;;;8.37;5.33;;;;;;;19.92;53.83;99087.97;6922981;28;20227;-79
2022/10/31 09:34:45;;;;;;;9.07;5.47;;;;;;;19.94;53.71;99096.72;6919925;28;20211;-79
2022/10/31 09:38:07;;;;;;;10.67;5.23;;;;;;;20.21;51.83;99091.28;6919777;28;20262;-79
2022/10/31 09:41:38;;;;;;;8.53;6.07;;;;;;;20.46;51.53;99092.34;6920108;28;20303;-79
2022/10/31 09:45:07;;;;;;;10.93;6.00;;;;;;;20.27;52.87;99087.53;6918921;28;20216;-79
2022/10/31 09:48:38;;;;;;;11.93;5.50;;;;;;;20.55;52.77;99078.97;6918688;28;20277;-78
2022/10/31 09:52:03;;;;;;;10.10;5.57;;;;;;;20.38;53.59;99070.91;6919536;28;20278;-79
2022/10/31 09:55:28;;;;;;;14.53;5.60;;;;;;;20.60;52.88;99032.44;6918531;28;20291;-78
2022/10/31 09:58:53;;;;;;;7.57;5.27;;;;;;;20.72;52.91;99068.69;6922759;28;20744;-78
2022/10/31 10:02:18;;;;;;;10.00;5.10;;;;;;;20.75;52.78;99063.50;6925032;28;20389;-78
2022/10/31 10:05:44;;;;;;;8.40;5.20;;;;;;;20.92;51.81;99045.00;6924722;28;20227;-79
2022/10/31 10:09:08;;;;;;;8.67;4.63;;;;;;;20.81;52.64;99059.72;6923723;28;20282;-78
2022/10/31 10:12:39;;;;;;;7.90;4.63;;;;;;;21.12;51.34;99068.97;6925014;28;20228;-78
2022/10/31 10:16:08;;;;;;;9.73;4.80;;;;;;;21.24;50.76;99064.94;6924109;28;20610;-78
2022/10/31 10:19:41;;;;;;;7.97;5.00;;;;;;;21.29;50.47;99062.19;6923574;28;20346;-78
2022/10/31 10:23:24;;;;;;;8.30;4.70;;;;;;;21.86;49.20;99052.00;6923891;28;20232;-78
2022/10/31 10:26:53;;;;;;;5.77;4.97;;;;;;;21.58;49.71;99045.03;6924015;28;20359;-78
2022/10/31 10:30:17;;;;;;;11.33;5.60;;;;;;;21.66;49.62;99060.97;6924010;28;20333;-78
2022/10/31 10:33:43;;;;;;;8.60;4.90;;;;;;;21.08;51.41;99049.50;6924344;28;20290;-79
2022/10/31 10:37:10;;;;;;;10.43;7.40;;;;;;;21.90;49.42;99064.09;6924863;28;20188;-79
2022/10/31 10:40:31;;;;;;;10.70;5.03;;;;;;;22.03;48.83;99050.66;6925222;28;20286;-79
2022/10/31 10:43:54;;;;;;;8.10;5.07;;;;;;;21.43;50.94;99050.47;6923534;28;20713;-79
2022/10/31 10:50:55;;;;;;;10.17;4.53;;;;;;;22.20;49.91;99031.16;6896674;28;20224;-80
2022/10/31 10:54:43;;;;;;;10.27;5.40;;;;;;;22.44;49.46;99038.63;6924443;28;20219;-81
2022/10/31 10:58:07;;;;;;;6.23;5.00;;;;;;;22.47;48.85;99031.72;6899525;28;20354;-78
2022/10/31 11:01:30;;;;;;;8.47;5.10;;;;;;;22.50;50.49;99033.94;6896963;28;20236;-79
2022/10/31 11:04:53;;;;;;;10.67;5.60;;;;;;;22.49;49.63;99026.81;6915480;28;20373;-80
2022/10/31 11:08:33;;;;;;;11.47;5.63;;;;;;;22.45;48.66;99025.69;6924213;28;20208;-83
2022/10/31 11:11:55;;;;;;;10.43;4.57;;;;;;;22.19;49.33;99016.59;6923271;28;20245;-80
2022/10/31 11:15:20;;;;;;;10.53;5.53;;;;;;;22.53;48.13;99005.91;6924197;28;20349;-79
2022/10/31 11:18:46;;;;;;;11.07;4.80;;;;;;;21.78;51.02;99000.38;6922496;28;20355;-79
2022/10/31 11:22:09;;;;;;;8.13;5.50;;;;;;;22.48;48.93;99009.47;6923226;28;20231;-80
2022/10/31 11:25:31;;;;;;;9.17;5.33;;;;;;;22.41;49.04;98997.91;6924541;28;20242;-80
2022/10/31 11:28:58;;;;;;;10.90;6.13;;;;;;;22.64;48.67;98985.53;6919287;28;20295;-79
2022/10/31 11:32:21;;;;;;;8.77;7.83;;;;;;;22.69;48.29;98988.28;6895269;28;20240;-79
2022/10/31 11:35:44;;;;;;;50.33;40.87;;;;;;;22.88;48.09;98976.41;6895235;28;20299;-79
2022/10/31 11:39:16;;;;;;;20.70;12.97;;;;;;;22.47;48.59;98963.03;6894832;28;20204;-78
2022/10/31 11:42:40;;;;;;;52.97;38.63;;;;;;;22.86;48.53;98956.63;6895560;28;20227;-78
2022/10/31 11:46:09;;;;;;;102.73;77.73;;;;;;;22.74;48.61;98941.53;6894077;28;20240;-79
2022/10/31 11:49:35;;;;;;;28.57;22.63;;;;;;;23.03;48.18;98935.09;6895899;28;20214;-78
2022/10/31 11:52:58;;;;;;;9.83;7.93;;;;;;;23.19;46.94;98941.38;6896643;28;20320;-79
2022/10/31 11:56:20;;;;;;;18.93;4.93;;;;;;;22.97;48.05;98935.41;6895908;28;20196;-80
2022/10/31 11:59:52;;;;;;;10.60;4.70;;;;;;;23.46;46.23;98930.75;6921818;28;20772;-79
2022/10/31 12:03:27;;;;;;;7.97;4.93;;;;;;;23.93;45.67;98931.00;6921772;28;20635;-79
2022/10/31 12:06:55;;;;;;;9.10;5.60;;;;;;;23.66;45.67;98912.16;6922994;28;20297;-79
2022/10/31 12:10:21;;;;;;;8.90;4.73;;;;;;;24.13;44.97;98923.38;6923522;28;20279;-80
2022/10/31 12:13:52;;;;;;;10.20;5.47;;;;;;;24.07;45.38;98920.97;6923732;28;20301;-79
2022/10/31 12:17:15;;;;;;;9.57;5.77;;;;;;;23.38;46.06;98907.44;6923272;28;20344;-79
2022/10/31 12:20:42;;;;;;;10.27;5.30;;;;;;;23.87;45.34;98916.44;6921772;28;20361;-79
2022/10/31 12:24:13;;;;;;;9.27;5.13;;;;;;;23.72;45.90;98921.22;6922528;28;20229;-79
2022/10/31 12:27:57;;;;;;;13.13;5.53;;;;;;;23.78;45.07;98895.28;6922898;28;20227;-80
2022/10/31 12:31:40;;;;;;;8.20;4.87;;;;;;;23.33;46.29;98898.38;6923120;28;20723;-79
2022/10/31 12:35:35;;;;;;;11.10;6.00;;;;;;;23.48;46.38;98899.09;6923560;28;20253;-79
2022/10/31 12:39:10;;;;;;;11.97;5.37;;;;;;;23.66;46.61;98892.09;6909719;28;20765;-79
2022/10/31 12:42:45;;;;;;;10.27;5.97;;;;;;;23.69;46.14;98881.31;6908528;28;20257;-79
2022/10/31 12:46:11;;;;;;;13.00;5.70;;;;;;;23.98;45.87;98882.22;6931984;28;20236;-80
2022/10/31 12:49:40;;;;;;;7.47;5.60;;;;;;;23.46;47.13;98872.94;6936176;28;20262;-79
2022/10/31 12:53:17;;;;;;;8.57;5.40;;;;;;;23.48;46.77;98854.25;6922303;28;20329;-80
2022/10/31 12:56:47;;;;;;;9.60;5.70;;;;;;;23.44;47.07;98836.66;6921611;28;20279;-79
2022/10/31 13:00:15;;;;;;;9.37;5.50;;;;;;;23.80;46.22;98847.09;6920811;28;20232;-80
2022/10/31 13:03:45;;;;;;;9.27;5.13;;;;;;;23.61;46.71;98856.34;6920787;28;20234;-79
2022/10/31 13:07:11;;;;;;;8.70;5.60;;;;;;;23.77;46.13;98835.84;6921281;28;20215;-82
2022/10/31 13:10:36;;;;;;;9.47;5.60;;;;;;;23.64;47.05;98841.97;6920186;28;20232;-80
2022/10/31 13:14:03;;;;;;;10.37;5.40;;;;;;;23.29;47.61;98829.34;6920787;28;20673;-80
2022/10/31 13:17:30;;;;;;;13.20;6.10;;;;;;;23.36;47.60;98827.06;6920067;28;20293;-79
2022/10/31 13:20:52;;;;;;;9.97;5.53;;;;;;;23.09;48.45;98798.34;6920131;28;20318;-80
2022/10/31 13:24:18;;;;;;;7.13;5.43;;;;;;;23.29;48.20;98823.81;6919995;28;20708;-79
2022/10/31 13:27:48;;;;;;;10.00;5.87;;;;;;;23.34;48.25;98815.53;6919458;28;20613;-80
2022/10/31 13:31:09;;;;;;;10.97;5.73;;;;;;;23.13;48.11;98821.44;6918848;28;20282;-80
2022/10/31 13:34:35;;;;;;;12.23;5.67;;;;;;;23.27;47.55;98819.72;6919637;28;20243;-79
2022/10/31 13:38:06;;;;;;;8.50;5.40;;;;;;;23.36;47.55;98807.81;6919455;28;20281;-79
2022/10/31 13:41:34;;;;;;;7.23;5.07;;;;;;;23.42;47.38;98806.66;6920036;28;20708;-80
2022/10/31 13:44:56;;;;;;;9.20;5.43;;;;;;;23.46;47.66;98796.72;6914233;28;20295;-80
2022/10/31 13:48:34;;;;;;;13.57;6.00;;;;;;;23.38;48.33;98791.84;6902920;28;20825;-78
2022/10/31 13:52:17;;;;;;;8.97;4.90;;;;;;;23.41;49.05;98788.50;6904721;28;20223;-80
2022/10/31 13:55:41;;;;;;;8.67;5.13;;;;;;;23.53;48.44;98777.94;6919171;28;20579;-79
2022/10/31 13:59:23;;;;;;;13.70;5.70;;;;;;;23.67;48.28;98805.63;6909478;28;20209;-79
2022/10/31 14:02:47;;;;;;;8.67;5.30;;;;;;;23.65;47.91;98814.16;6913306;28;20296;-79
2022/10/31 14:06:10;;;;;;;10.70;5.20;;;;;;;23.91;47.79;98809.28;6917364;28;20244;-81
2022/10/31 14:09:35;;;;;;;8.67;5.00;;;;;;;23.60;47.77;98797.69;6908749;28;20762;-79
2022/10/31 14:13:05;;;;;;;10.47;4.90;;;;;;;23.26;48.73;98783.13;6896618;28;20310;-79
2022/10/31 14:16:29;;;;;;;10.47;5.47;;;;;;;23.59;47.14;98759.47;6894737;28;20247;-79
2022/10/31 14:20:17;;;;;;;7.63;4.33;;;;;;;23.92;46.51;98767.69;6891759;28;20253;-80
2022/10/31 14:23:42;;;;;;;11.07;5.23;;;;;;;23.87;46.90;98770.50;6889148;28;20212;-80
2022/10/31 14:27:21;;;;;;;12.23;5.00;;;;;;;23.88;47.64;98779.56;6939582;28;20618;-79
2022/10/31 14:30:52;;;;;;;7.80;4.90;;;;;;;23.94;46.44;98761.84;6918356;28;20272;-80
2022/10/31 14:34:22;;;;;;;12.47;5.70;;;;;;;23.78;46.69;98774.94;6905031;28;20620;-79
2022/10/31 14:38:05;;;;;;;9.23;5.37;;;;;;;23.67;46.95;98770.66;6891715;28;20284;-81
2022/10/31 14:41:37;;;;;;;14.03;6.13;;;;;;;23.93;46.89;98755.56;6912090;28;20228;-79
2022/10/31 14:45:26;;;;;;;9.90;5.40;;;;;;;23.83;46.35;98754.81;6919344;28;20311;-79
2022/10/31 14:49:05;;;;;;;9.87;5.40;;;;;;;23.85;46.41;98760.84;6913339;28;20299;-79
2022/10/31 14:52:26;;;;;;;10.90;5.17;;;;;;;23.39;46.24;98696.34;6923087;28;20310;-80
2022/10/31 14:55:51;;;;;;;8.43;5.03;;;;;;;23.51;47.56;98768.31;6922784;28;20321;-80
2022/10/31 14:59:15;;;;;;;10.17;5.83;;;;;;;23.46;47.99;98766.44;6923087;28;20256;-79
2022/10/31 15:02:42;;;;;;;8.67;5.20;;;;;;;23.51;47.36;98766.41;6922903;28;20309;-79
2022/10/31 15:06:07;;;;;;;12.47;6.10;;;;;;;23.35;47.32;98750.31;6923023;28;20224;-80
2022/10/31 15:09:30;;;;;;;10.20;6.30;;;;;;;23.39;47.18;98752.22;6922648;28;20216;-79
2022/10/31 15:12:52;;;;;;;11.07;5.83;;;;;;;23.38;47.46;98758.00;6923387;28;20284;-79
2022/10/31 15:16:15;;;;;;;9.93;6.63;;;;;;;23.40;47.29;98745.59;6923657;28;20843;-79
2022/10/31 15:19:38;;;;;;;10.77;5.33;;;;;;;23.14;48.01;98738.63;6912627;28;20273;-79
2022/10/31 15:23:00;;;;;;;13.07;6.83;;;;;;;23.38;48.54;98736.81;6901043;28;20365;-78
2022/10/31 15:26:23;;;;;;;17.73;7.83;;;;;;;22.88;50.69;98739.94;6904397;28;20290;-79
2022/10/31 15:29:49;;;;;;;14.47;8.33;;;;;;;22.83;51.27;98750.16;6922643;28;20232;-79
2022/10/31 15:33:20;;;;;;;11.10;6.93;;;;;;;22.56;52.31;98744.25;6923184;28;20594;-80
2022/10/31 15:36:43;;;;;;;11.53;7.20;;;;;;;22.65;52.08;98751.63;6915733;28;20197;-80
2022/10/31 15:40:08;;;;;;;10.60;6.47;;;;;;;22.36;53.00;98745.16;6921833;28;20262;-79
2022/10/31 15:43:34;;;;;;;14.03;6.37;;;;;;;21.60;55.28;98740.97;6923464;28;20780;-79
2022/10/31 15:46:57;;;;;;;9.80;5.90;;;;;;;22.01;53.80;98739.00;6921676;28;20374;-80
2022/10/31 15:50:20;;;;;;;12.17;7.07;;;;;;;21.23;56.00;98747.06;6922496;28;20346;-79
2022/10/31 15:53:47;;;;;;;11.47;6.57;;;;;;;21.21;56.17;98725.41;6922600;28;20238;-79
2022/10/31 15:57:11;;;;;;;12.47;6.80;;;;;;;21.48;55.19;98726.75;6923955;28;20216;-79
2022/10/31 16:00:34;;;;;;;10.43;6.47;;;;;;;21.22;55.47;98720.75;6917855;28;20243;-79
2022/10/31 16:04:01;;;;;;;10.57;7.53;;;;;;;20.82;56.59;98745.38;6921267;28;20275;-79